sensor_id;sensor_type;location;lat;lon;timestamp;P1;durP1;ratioP1;P2;durP2;ratioP2
78670;SDS011;68277;52.724;6.516;2023-11-19T00:02:20;108.75;;;21.40;;
78670;SDS011;68277;52.724;6.516;2023-11-19T00:04:47;123.90;;;24.88;;
78670;SDS011;68277;52.724;6.516;2023-11-19T00:07:13;94.53;;;21.85;;
78670;SDS011;68277;52.724;6.516;2023-11-19T00:09:39;121.63;;;24.88;;
78670;SDS011;68277;52.724;6.516;2023-11-19T00:12:05;96.53;;;22.60;;
78670;SDS011;68277;52.724;6.516;2023-11-19T00:14:32;105.78;;;23.10;;
78670;SDS011;68277;52.724;6.516;2023-11-19T00:16:57;118.50;;;26.35;;
78670;SDS011;68277;52.724;6.516;2023-11-19T00:19:23;104.93;;;23.35;;
78670;SDS011;68277;52.724;6.516;2023-11-19T00:21:50;122.85;;;24.00;;
78670;SDS011;68277;52.724;6.516;2023-11-19T00:26:42;93.45;;;19.90;;
78670;SDS011;68277;52.724;6.516;2023-11-19T00:29:07;99.90;;;21.45;;
78670;SDS011;68277;52.724;6.516;2023-11-19T00:31:33;116.30;;;22.05;;
78670;SDS011;68277;52.724;6.516;2023-11-19T00:33:59;90.35;;;17.40;;
78670;SDS011;68277;52.724;6.516;2023-11-19T00:36:24;103.90;;;21.52;;
78670;SDS011;68277;52.724;6.516;2023-11-19T00:38:50;90.65;;;20.25;;
78670;SDS011;68277;52.724;6.516;2023-11-19T00:41:18;85.95;;;19.38;;
78670;SDS011;68277;52.724;6.516;2023-11-19T00:43:44;77.40;;;19.15;;
78670;SDS011;68277;52.724;6.516;2023-11-19T00:46:10;78.85;;;17.42;;
78670;SDS011;68277;52.724;6.516;2023-11-19T00:48:39;79.15;;;17.85;;
78670;SDS011;68277;52.724;6.516;2023-11-19T00:51:05;75.20;;;18.17;;
78670;SDS011;68277;52.724;6.516;2023-11-19T00:53:31;82.15;;;18.58;;
78670;SDS011;68277;52.724;6.516;2023-11-19T00:56:00;80.53;;;18.08;;
78670;SDS011;68277;52.724;6.516;2023-11-19T00:58:25;86.65;;;17.48;;
78670;SDS011;68277;52.724;6.516;2023-11-19T01:00:52;56.03;;;13.75;;
78670;SDS011;68277;52.724;6.516;2023-11-19T01:03:17;56.00;;;14.55;;
78670;SDS011;68277;52.724;6.516;2023-11-19T01:05:43;50.85;;;13.82;;
78670;SDS011;68277;52.724;6.516;2023-11-19T01:08:09;63.42;;;13.85;;
78670;SDS011;68277;52.724;6.516;2023-11-19T01:10:38;55.83;;;13.40;;
78670;SDS011;68277;52.724;6.516;2023-11-19T01:13:05;48.00;;;12.05;;
78670;SDS011;68277;52.724;6.516;2023-11-19T01:15:31;40.88;;;11.05;;
78670;SDS011;68277;52.724;6.516;2023-11-19T01:17:57;46.45;;;11.45;;
78670;SDS011;68277;52.724;6.516;2023-11-19T01:20:22;32.67;;;9.35;;
78670;SDS011;68277;52.724;6.516;2023-11-19T01:22:48;36.47;;;8.13;;
78670;SDS011;68277;52.724;6.516;2023-11-19T01:25:14;36.70;;;10.32;;
78670;SDS011;68277;52.724;6.516;2023-11-19T01:27:40;43.45;;;9.93;;
78670;SDS011;68277;52.724;6.516;2023-11-19T01:30:05;40.58;;;10.27;;
78670;SDS011;68277;52.724;6.516;2023-11-19T01:32:34;36.20;;;10.13;;
78670;SDS011;68277;52.724;6.516;2023-11-19T01:35:02;41.60;;;10.60;;
78670;SDS011;68277;52.724;6.516;2023-11-19T01:37:29;39.22;;;9.82;;
78670;SDS011;68277;52.724;6.516;2023-11-19T01:39:54;38.50;;;9.93;;
78670;SDS011;68277;52.724;6.516;2023-11-19T01:42:20;42.38;;;9.93;;
78670;SDS011;68277;52.724;6.516;2023-11-19T01:44:58;30.17;;;9.85;;
78670;SDS011;68277;52.724;6.516;2023-11-19T01:47:25;40.45;;;8.82;;
78670;SDS011;68277;52.724;6.516;2023-11-19T01:49:51;39.25;;;7.90;;
78670;SDS011;68277;52.724;6.516;2023-11-19T01:52:17;22.80;;;6.82;;
78670;SDS011;68277;52.724;6.516;2023-11-19T01:54:44;37.05;;;7.82;;
78670;SDS011;68277;52.724;6.516;2023-11-19T01:57:11;38.90;;;8.45;;
78670;SDS011;68277;52.724;6.516;2023-11-19T01:59:37;12.88;;;6.03;;
78670;SDS011;68277;52.724;6.516;2023-11-19T02:02:03;28.40;;;6.65;;
78670;SDS011;68277;52.724;6.516;2023-11-19T02:04:32;22.70;;;6.53;;
78670;SDS011;68277;52.724;6.516;2023-11-19T02:06:58;31.02;;;6.70;;
78670;SDS011;68277;52.724;6.516;2023-11-19T02:09:24;19.83;;;4.97;;
78670;SDS011;68277;52.724;6.516;2023-11-19T02:11:50;23.48;;;5.70;;
78670;SDS011;68277;52.724;6.516;2023-11-19T02:14:21;29.52;;;5.47;;
78670;SDS011;68277;52.724;6.516;2023-11-19T02:16:51;25.98;;;5.30;;
78670;SDS011;68277;52.724;6.516;2023-11-19T02:19:20;14.27;;;4.07;;
78670;SDS011;68277;52.724;6.516;2023-11-19T02:21:46;19.67;;;6.15;;
78670;SDS011;68277;52.724;6.516;2023-11-19T02:24:12;23.15;;;4.95;;
78670;SDS011;68277;52.724;6.516;2023-11-19T02:29:27;21.63;;;4.93;;
78670;SDS011;68277;52.724;6.516;2023-11-19T02:31:53;19.92;;;6.90;;
78670;SDS011;68277;52.724;6.516;2023-11-19T02:34:20;30.88;;;5.85;;
78670;SDS011;68277;52.724;6.516;2023-11-19T02:36:47;18.95;;;3.95;;
78670;SDS011;68277;52.724;6.516;2023-11-19T02:39:12;34.70;;;4.80;;
78670;SDS011;68277;52.724;6.516;2023-11-19T02:41:38;26.38;;;4.57;;
78670;SDS011;68277;52.724;6.516;2023-11-19T02:44:05;29.50;;;4.47;;
78670;SDS011;68277;52.724;6.516;2023-11-19T02:48:58;19.40;;;4.03;;
78670;SDS011;68277;52.724;6.516;2023-11-19T02:51:23;16.73;;;4.70;;
78670;SDS011;68277;52.724;6.516;2023-11-19T02:53:49;24.08;;;4.30;;
78670;SDS011;68277;52.724;6.516;2023-11-19T02:56:14;24.55;;;4.05;;
78670;SDS011;68277;52.724;6.516;2023-11-19T02:58:45;22.48;;;3.70;;
78670;SDS011;68277;52.724;6.516;2023-11-19T03:01:11;12.23;;;4.45;;
78670;SDS011;68277;52.724;6.516;2023-11-19T03:03:56;14.88;;;3.35;;
78670;SDS011;68277;52.724;6.516;2023-11-19T03:06:23;31.77;;;5.10;;
78670;SDS011;68277;52.724;6.516;2023-11-19T03:08:49;28.95;;;5.28;;
78670;SDS011;68277;52.724;6.516;2023-11-19T03:11:14;26.63;;;4.28;;
78670;SDS011;68277;52.724;6.516;2023-11-19T03:13:40;18.40;;;5.47;;
78670;SDS011;68277;52.724;6.516;2023-11-19T03:16:06;29.02;;;4.38;;
78670;SDS011;68277;52.724;6.516;2023-11-19T03:18:36;22.38;;;5.10;;
78670;SDS011;68277;52.724;6.516;2023-11-19T03:21:01;20.55;;;4.60;;
78670;SDS011;68277;52.724;6.516;2023-11-19T03:23:28;15.93;;;4.13;;
78670;SDS011;68277;52.724;6.516;2023-11-19T03:25:54;22.17;;;4.68;;
78670;SDS011;68277;52.724;6.516;2023-11-19T03:28:20;24.95;;;4.63;;
78670;SDS011;68277;52.724;6.516;2023-11-19T03:30:46;25.40;;;4.22;;
78670;SDS011;68277;52.724;6.516;2023-11-19T03:33:12;29.20;;;5.78;;
78670;SDS011;68277;52.724;6.516;2023-11-19T03:35:37;16.70;;;3.50;;
78670;SDS011;68277;52.724;6.516;2023-11-19T03:38:03;14.85;;;3.78;;
78670;SDS011;68277;52.724;6.516;2023-11-19T03:40:28;26.60;;;4.15;;
78670;SDS011;68277;52.724;6.516;2023-11-19T03:42:55;15.80;;;3.42;;
78670;SDS011;68277;52.724;6.516;2023-11-19T03:45:24;17.92;;;3.88;;
78670;SDS011;68277;52.724;6.516;2023-11-19T03:47:50;29.13;;;4.43;;
78670;SDS011;68277;52.724;6.516;2023-11-19T03:50:21;15.93;;;3.60;;
78670;SDS011;68277;52.724;6.516;2023-11-19T03:52:47;24.23;;;4.35;;
78670;SDS011;68277;52.724;6.516;2023-11-19T03:55:13;24.48;;;3.65;;
78670;SDS011;68277;52.724;6.516;2023-11-19T03:57:39;17.05;;;4.03;;
78670;SDS011;68277;52.724;6.516;2023-11-19T04:00:05;15.77;;;3.63;;
78670;SDS011;68277;52.724;6.516;2023-11-19T04:02:39;33.33;;;4.55;;
78670;SDS011;68277;52.724;6.516;2023-11-19T04:05:05;16.33;;;3.90;;
78670;SDS011;68277;52.724;6.516;2023-11-19T04:07:32;17.73;;;3.60;;
78670;SDS011;68277;52.724;6.516;2023-11-19T04:09:57;28.50;;;5.25;;
78670;SDS011;68277;52.724;6.516;2023-11-19T04:12:24;18.30;;;4.13;;
78670;SDS011;68277;52.724;6.516;2023-11-19T04:14:50;19.55;;;3.60;;
78670;SDS011;68277;52.724;6.516;2023-11-19T04:17:17;13.40;;;3.28;;
78670;SDS011;68277;52.724;6.516;2023-11-19T04:19:43;18.95;;;3.17;;
78670;SDS011;68277;52.724;6.516;2023-11-19T04:22:08;21.42;;;3.97;;
78670;SDS011;68277;52.724;6.516;2023-11-19T04:24:34;21.25;;;3.22;;
78670;SDS011;68277;52.724;6.516;2023-11-19T04:27:00;22.58;;;4.22;;
78670;SDS011;68277;52.724;6.516;2023-11-19T04:29:25;21.45;;;3.53;;
78670;SDS011;68277;52.724;6.516;2023-11-19T04:31:53;22.67;;;4.15;;
78670;SDS011;68277;52.724;6.516;2023-11-19T04:36:45;20.10;;;4.10;;
78670;SDS011;68277;52.724;6.516;2023-11-19T04:39:10;22.00;;;3.70;;
78670;SDS011;68277;52.724;6.516;2023-11-19T04:44:13;17.33;;;3.85;;
78670;SDS011;68277;52.724;6.516;2023-11-19T04:46:39;23.52;;;3.85;;
78670;SDS011;68277;52.724;6.516;2023-11-19T04:49:04;16.80;;;3.40;;
78670;SDS011;68277;52.724;6.516;2023-11-19T04:51:30;21.35;;;4.05;;
78670;SDS011;68277;52.724;6.516;2023-11-19T04:53:55;22.45;;;3.15;;
78670;SDS011;68277;52.724;6.516;2023-11-19T04:56:22;22.17;;;4.03;;
78670;SDS011;68277;52.724;6.516;2023-11-19T04:58:48;21.48;;;3.67;;
78670;SDS011;68277;52.724;6.516;2023-11-19T05:01:15;15.63;;;3.80;;
78670;SDS011;68277;52.724;6.516;2023-11-19T05:03:42;19.02;;;3.47;;
78670;SDS011;68277;52.724;6.516;2023-11-19T05:06:07;24.02;;;3.97;;
78670;SDS011;68277;52.724;6.516;2023-11-19T05:08:33;17.02;;;3.58;;
78670;SDS011;68277;52.724;6.516;2023-11-19T05:10:58;14.52;;;2.95;;
78670;SDS011;68277;52.724;6.516;2023-11-19T05:13:24;18.33;;;3.92;;
78670;SDS011;68277;52.724;6.516;2023-11-19T05:15:51;10.48;;;3.08;;
78670;SDS011;68277;52.724;6.516;2023-11-19T05:18:17;15.73;;;3.03;;
78670;SDS011;68277;52.724;6.516;2023-11-19T05:20:43;24.55;;;5.18;;
78670;SDS011;68277;52.724;6.516;2023-11-19T05:25:36;23.52;;;4.38;;
78670;SDS011;68277;52.724;6.516;2023-11-19T05:28:02;24.58;;;4.10;;
78670;SDS011;68277;52.724;6.516;2023-11-19T05:30:27;21.40;;;3.65;;
78670;SDS011;68277;52.724;6.516;2023-11-19T05:32:53;26.77;;;3.45;;
78670;SDS011;68277;52.724;6.516;2023-11-19T05:35:18;14.48;;;3.20;;
78670;SDS011;68277;52.724;6.516;2023-11-19T05:37:44;16.65;;;4.85;;
78670;SDS011;68277;52.724;6.516;2023-11-19T05:40:09;25.10;;;4.60;;
78670;SDS011;68277;52.724;6.516;2023-11-19T05:42:42;21.63;;;3.67;;
78670;SDS011;68277;52.724;6.516;2023-11-19T05:45:10;17.70;;;2.97;;
78670;SDS011;68277;52.724;6.516;2023-11-19T05:47:38;18.45;;;3.72;;
78670;SDS011;68277;52.724;6.516;2023-11-19T05:50:04;18.10;;;3.92;;
78670;SDS011;68277;52.724;6.516;2023-11-19T05:52:31;22.92;;;3.50;;
78670;SDS011;68277;52.724;6.516;2023-11-19T05:55:01;22.00;;;3.90;;
78670;SDS011;68277;52.724;6.516;2023-11-19T05:57:34;23.25;;;4.05;;
78670;SDS011;68277;52.724;6.516;2023-11-19T06:00:00;18.70;;;4.28;;
78670;SDS011;68277;52.724;6.516;2023-11-19T06:02:25;14.50;;;3.83;;
78670;SDS011;68277;52.724;6.516;2023-11-19T06:04:52;16.25;;;4.18;;
78670;SDS011;68277;52.724;6.516;2023-11-19T06:07:18;22.00;;;3.58;;
78670;SDS011;68277;52.724;6.516;2023-11-19T06:09:45;15.00;;;3.35;;
78670;SDS011;68277;52.724;6.516;2023-11-19T06:12:10;16.08;;;3.92;;
78670;SDS011;68277;52.724;6.516;2023-11-19T06:14:36;19.38;;;3.95;;
78670;SDS011;68277;52.724;6.516;2023-11-19T06:17:01;17.13;;;3.38;;
78670;SDS011;68277;52.724;6.516;2023-11-19T06:19:27;13.73;;;3.28;;
78670;SDS011;68277;52.724;6.516;2023-11-19T06:21:53;12.27;;;2.75;;
78670;SDS011;68277;52.724;6.516;2023-11-19T06:24:18;16.27;;;3.22;;
78670;SDS011;68277;52.724;6.516;2023-11-19T06:26:44;9.27;;;3.17;;
78670;SDS011;68277;52.724;6.516;2023-11-19T06:29:09;9.15;;;2.55;;
78670;SDS011;68277;52.724;6.516;2023-11-19T06:31:35;21.98;;;3.03;;
78670;SDS011;68277;52.724;6.516;2023-11-19T06:34:01;12.77;;;2.85;;
78670;SDS011;68277;52.724;6.516;2023-11-19T06:36:27;24.80;;;4.72;;
78670;SDS011;68277;52.724;6.516;2023-11-19T06:38:52;24.67;;;5.35;;
78670;SDS011;68277;52.724;6.516;2023-11-19T06:41:18;25.38;;;5.72;;
78670;SDS011;68277;52.724;6.516;2023-11-19T06:43:43;25.10;;;4.63;;
78670;SDS011;68277;52.724;6.516;2023-11-19T06:46:15;22.20;;;3.38;;
78670;SDS011;68277;52.724;6.516;2023-11-19T06:48:41;16.10;;;2.85;;
78670;SDS011;68277;52.724;6.516;2023-11-19T06:51:09;22.58;;;3.90;;
78670;SDS011;68277;52.724;6.516;2023-11-19T06:53:34;18.70;;;3.72;;
78670;SDS011;68277;52.724;6.516;2023-11-19T06:56:06;17.35;;;3.28;;
78670;SDS011;68277;52.724;6.516;2023-11-19T06:58:43;16.50;;;2.83;;
78670;SDS011;68277;52.724;6.516;2023-11-19T07:01:09;36.10;;;3.83;;
78670;SDS011;68277;52.724;6.516;2023-11-19T07:03:34;15.27;;;3.15;;
78670;SDS011;68277;52.724;6.516;2023-11-19T07:06:00;16.52;;;4.18;;
78670;SDS011;68277;52.724;6.516;2023-11-19T07:08:25;23.98;;;3.33;;
78670;SDS011;68277;52.724;6.516;2023-11-19T07:10:52;19.52;;;3.70;;
78670;SDS011;68277;52.724;6.516;2023-11-19T07:13:20;29.05;;;4.85;;
78670;SDS011;68277;52.724;6.516;2023-11-19T07:15:46;16.85;;;3.97;;
78670;SDS011;68277;52.724;6.516;2023-11-19T07:18:11;10.23;;;3.03;;
78670;SDS011;68277;52.724;6.516;2023-11-19T07:20:37;22.85;;;3.92;;
78670;SDS011;68277;52.724;6.516;2023-11-19T07:23:03;22.65;;;3.22;;
78670;SDS011;68277;52.724;6.516;2023-11-19T07:25:29;23.17;;;4.15;;
78670;SDS011;68277;52.724;6.516;2023-11-19T07:27:55;17.60;;;2.45;;
78670;SDS011;68277;52.724;6.516;2023-11-19T07:30:21;27.00;;;3.95;;
78670;SDS011;68277;52.724;6.516;2023-11-19T07:32:47;14.95;;;2.83;;
78670;SDS011;68277;52.724;6.516;2023-11-19T07:35:13;19.70;;;3.58;;
78670;SDS011;68277;52.724;6.516;2023-11-19T07:37:41;15.82;;;3.83;;
78670;SDS011;68277;52.724;6.516;2023-11-19T07:40:07;18.58;;;3.78;;
78670;SDS011;68277;52.724;6.516;2023-11-19T07:42:33;16.30;;;3.05;;
78670;SDS011;68277;52.724;6.516;2023-11-19T07:44:58;19.00;;;3.05;;
78670;SDS011;68277;52.724;6.516;2023-11-19T07:47:24;21.15;;;3.42;;
78670;SDS011;68277;52.724;6.516;2023-11-19T07:49:50;21.38;;;3.53;;
78670;SDS011;68277;52.724;6.516;2023-11-19T07:52:16;14.63;;;2.45;;
78670;SDS011;68277;52.724;6.516;2023-11-19T07:54:41;15.93;;;3.03;;
78670;SDS011;68277;52.724;6.516;2023-11-19T07:57:07;28.27;;;4.47;;
78670;SDS011;68277;52.724;6.516;2023-11-19T07:59:32;20.13;;;3.08;;
78670;SDS011;68277;52.724;6.516;2023-11-19T08:01:57;16.55;;;4.85;;
78670;SDS011;68277;52.724;6.516;2023-11-19T08:04:23;16.90;;;3.20;;
78670;SDS011;68277;52.724;6.516;2023-11-19T08:06:49;25.00;;;3.95;;
78670;SDS011;68277;52.724;6.516;2023-11-19T08:09:14;18.40;;;2.53;;
78670;SDS011;68277;52.724;6.516;2023-11-19T08:11:43;13.43;;;3.17;;
78670;SDS011;68277;52.724;6.516;2023-11-19T08:14:08;23.88;;;4.50;;
78670;SDS011;68277;52.724;6.516;2023-11-19T08:16:36;27.08;;;3.65;;
78670;SDS011;68277;52.724;6.516;2023-11-19T08:19:04;15.57;;;2.78;;
78670;SDS011;68277;52.724;6.516;2023-11-19T08:21:30;8.45;;;2.22;;
78670;SDS011;68277;52.724;6.516;2023-11-19T08:23:55;14.82;;;2.58;;
78670;SDS011;68277;52.724;6.516;2023-11-19T08:26:21;16.23;;;3.13;;
78670;SDS011;68277;52.724;6.516;2023-11-19T08:28:46;23.10;;;2.95;;
78670;SDS011;68277;52.724;6.516;2023-11-19T08:31:12;16.80;;;3.25;;
78670;SDS011;68277;52.724;6.516;2023-11-19T08:33:38;17.35;;;3.83;;
78670;SDS011;68277;52.724;6.516;2023-11-19T08:36:03;17.83;;;5.90;;
78670;SDS011;68277;52.724;6.516;2023-11-19T08:40:56;24.98;;;4.18;;
78670;SDS011;68277;52.724;6.516;2023-11-19T08:43:25;19.33;;;2.65;;
78670;SDS011;68277;52.724;6.516;2023-11-19T08:45:51;15.32;;;3.13;;
78670;SDS011;68277;52.724;6.516;2023-11-19T08:48:16;19.45;;;4.30;;
78670;SDS011;68277;52.724;6.516;2023-11-19T08:50:42;33.22;;;4.70;;
78670;SDS011;68277;52.724;6.516;2023-11-19T08:53:07;30.50;;;3.90;;
78670;SDS011;68277;52.724;6.516;2023-11-19T08:55:33;19.35;;;3.65;;
78670;SDS011;68277;52.724;6.516;2023-11-19T08:57:58;20.67;;;3.22;;
78670;SDS011;68277;52.724;6.516;2023-11-19T09:00:24;11.55;;;2.75;;
78670;SDS011;68277;52.724;6.516;2023-11-19T09:02:49;25.05;;;4.65;;
78670;SDS011;68277;52.724;6.516;2023-11-19T09:05:16;16.63;;;3.47;;
78670;SDS011;68277;52.724;6.516;2023-11-19T09:07:41;26.30;;;4.75;;
78670;SDS011;68277;52.724;6.516;2023-11-19T09:10:07;14.13;;;2.65;;
78670;SDS011;68277;52.724;6.516;2023-11-19T09:12:33;21.80;;;3.67;;
78670;SDS011;68277;52.724;6.516;2023-11-19T09:15:00;19.20;;;4.07;;
78670;SDS011;68277;52.724;6.516;2023-11-19T09:17:25;26.73;;;3.85;;
78670;SDS011;68277;52.724;6.516;2023-11-19T09:19:52;12.05;;;2.90;;
78670;SDS011;68277;52.724;6.516;2023-11-19T09:22:18;15.43;;;2.78;;
78670;SDS011;68277;52.724;6.516;2023-11-19T09:24:45;21.65;;;4.45;;
78670;SDS011;68277;52.724;6.516;2023-11-19T09:27:11;28.48;;;4.28;;
78670;SDS011;68277;52.724;6.516;2023-11-19T09:29:38;13.20;;;3.30;;
78670;SDS011;68277;52.724;6.516;2023-11-19T09:32:04;13.77;;;2.60;;
78670;SDS011;68277;52.724;6.516;2023-11-19T09:34:30;7.68;;;2.42;;
78670;SDS011;68277;52.724;6.516;2023-11-19T09:36:55;17.65;;;3.33;;
78670;SDS011;68277;52.724;6.516;2023-11-19T09:39:21;14.90;;;4.15;;
78670;SDS011;68277;52.724;6.516;2023-11-19T09:41:46;16.92;;;3.28;;
78670;SDS011;68277;52.724;6.516;2023-11-19T09:44:12;16.70;;;3.35;;
78670;SDS011;68277;52.724;6.516;2023-11-19T09:46:42;21.67;;;3.05;;
78670;SDS011;68277;52.724;6.516;2023-11-19T09:49:08;16.52;;;3.20;;
78670;SDS011;68277;52.724;6.516;2023-11-19T09:51:38;15.57;;;3.97;;
78670;SDS011;68277;52.724;6.516;2023-11-19T09:54:04;20.88;;;3.47;;
78670;SDS011;68277;52.724;6.516;2023-11-19T09:56:29;17.65;;;2.67;;
78670;SDS011;68277;52.724;6.516;2023-11-19T09:58:56;15.45;;;3.17;;
78670;SDS011;68277;52.724;6.516;2023-11-19T10:01:21;14.05;;;2.67;;
78670;SDS011;68277;52.724;6.516;2023-11-19T10:03:47;16.00;;;3.10;;
78670;SDS011;68277;52.724;6.516;2023-11-19T10:06:15;26.73;;;3.83;;
78670;SDS011;68277;52.724;6.516;2023-11-19T10:08:41;19.65;;;3.65;;
78670;SDS011;68277;52.724;6.516;2023-11-19T10:11:08;9.15;;;2.10;;
78670;SDS011;68277;52.724;6.516;2023-11-19T10:13:36;24.65;;;4.53;;
78670;SDS011;68277;52.724;6.516;2023-11-19T10:16:08;27.15;;;4.50;;
78670;SDS011;68277;52.724;6.516;2023-11-19T10:18:36;21.73;;;3.35;;
78670;SDS011;68277;52.724;6.516;2023-11-19T10:21:03;18.20;;;2.65;;
78670;SDS011;68277;52.724;6.516;2023-11-19T10:23:51;14.02;;;2.33;;
78670;SDS011;68277;52.724;6.516;2023-11-19T10:26:19;18.38;;;3.65;;
78670;SDS011;68277;52.724;6.516;2023-11-19T10:28:46;15.75;;;3.20;;
78670;SDS011;68277;52.724;6.516;2023-11-19T10:33:41;13.60;;;2.83;;
78670;SDS011;68277;52.724;6.516;2023-11-19T10:36:07;12.98;;;3.53;;
78670;SDS011;68277;52.724;6.516;2023-11-19T10:38:33;12.43;;;2.72;;
78670;SDS011;68277;52.724;6.516;2023-11-19T10:40:59;34.08;;;4.55;;
78670;SDS011;68277;52.724;6.516;2023-11-19T10:43:24;18.60;;;4.05;;
78670;SDS011;68277;52.724;6.516;2023-11-19T10:45:51;22.65;;;3.92;;
78670;SDS011;68277;52.724;6.516;2023-11-19T10:48:17;22.13;;;5.35;;
78670;SDS011;68277;52.724;6.516;2023-11-19T10:50:43;18.65;;;3.40;;
78670;SDS011;68277;52.724;6.516;2023-11-19T10:53:11;15.60;;;3.28;;
78670;SDS011;68277;52.724;6.516;2023-11-19T10:55:41;26.80;;;4.28;;
78670;SDS011;68277;52.724;6.516;2023-11-19T10:58:12;15.70;;;4.15;;
78670;SDS011;68277;52.724;6.516;2023-11-19T11:00:45;31.02;;;4.13;;
78670;SDS011;68277;52.724;6.516;2023-11-19T11:03:20;22.77;;;4.03;;
78670;SDS011;68277;52.724;6.516;2023-11-19T11:05:52;17.20;;;3.55;;
78670;SDS011;68277;52.724;6.516;2023-11-19T11:08:19;28.50;;;5.15;;
78670;SDS011;68277;52.724;6.516;2023-11-19T11:13:17;20.70;;;3.00;;
78670;SDS011;68277;52.724;6.516;2023-11-19T11:15:44;25.88;;;4.57;;
78670;SDS011;68277;52.724;6.516;2023-11-19T11:18:12;19.05;;;3.17;;
78670;SDS011;68277;52.724;6.516;2023-11-19T11:20:39;14.32;;;3.35;;
78670;SDS011;68277;52.724;6.516;2023-11-19T11:37:05;19.85;;;3.35;;
78670;SDS011;68277;52.724;6.516;2023-11-19T11:39:41;19.23;;;3.28;;
78670;SDS011;68277;52.724;6.516;2023-11-19T11:50:22;17.00;;;3.70;;
78670;SDS011;68277;52.724;6.516;2023-11-19T11:55:24;17.10;;;3.72;;
78670;SDS011;68277;52.724;6.516;2023-11-19T11:57:49;13.07;;;2.92;;
78670;SDS011;68277;52.724;6.516;2023-11-19T12:00:21;18.30;;;3.53;;
78670;SDS011;68277;52.724;6.516;2023-11-19T12:02:59;18.60;;;3.22;;
78670;SDS011;68277;52.724;6.516;2023-11-19T12:05:25;19.92;;;3.88;;
78670;SDS011;68277;52.724;6.516;2023-11-19T12:07:55;16.33;;;3.03;;
78670;SDS011;68277;52.724;6.516;2023-11-19T12:10:48;16.90;;;3.47;;
78670;SDS011;68277;52.724;6.516;2023-11-19T12:13:15;6.68;;;2.10;;
78670;SDS011;68277;52.724;6.516;2023-11-19T12:18:30;24.02;;;4.00;;
78670;SDS011;68277;52.724;6.516;2023-11-19T12:20:57;21.92;;;3.80;;
78670;SDS011;68277;52.724;6.516;2023-11-19T12:23:28;20.42;;;2.67;;
78670;SDS011;68277;52.724;6.516;2023-11-19T12:25:58;35.28;;;4.25;;
78670;SDS011;68277;52.724;6.516;2023-11-19T12:28:25;17.00;;;3.45;;
78670;SDS011;68277;52.724;6.516;2023-11-19T12:30:53;30.63;;;4.57;;
78670;SDS011;68277;52.724;6.516;2023-11-19T12:33:32;13.77;;;2.90;;
78670;SDS011;68277;52.724;6.516;2023-11-19T12:35:57;17.50;;;3.20;;
78670;SDS011;68277;52.724;6.516;2023-11-19T12:38:27;19.95;;;2.60;;
78670;SDS011;68277;52.724;6.516;2023-11-19T12:41:02;18.65;;;3.25;;
78670;SDS011;68277;52.724;6.516;2023-11-19T12:43:29;24.52;;;3.45;;
78670;SDS011;68277;52.724;6.516;2023-11-19T12:45:55;18.02;;;3.22;;
78670;SDS011;68277;52.724;6.516;2023-11-19T12:48:20;22.15;;;4.45;;
78670;SDS011;68277;52.724;6.516;2023-11-19T12:53:23;16.85;;;2.60;;
78670;SDS011;68277;52.724;6.516;2023-11-19T12:55:50;13.90;;;3.20;;
78670;SDS011;68277;52.724;6.516;2023-11-19T12:58:33;13.40;;;3.33;;
78670;SDS011;68277;52.724;6.516;2023-11-19T13:01:05;14.60;;;2.58;;
78670;SDS011;68277;52.724;6.516;2023-11-19T13:03:32;14.75;;;2.65;;
78670;SDS011;68277;52.724;6.516;2023-11-19T13:08:43;16.73;;;3.33;;
78670;SDS011;68277;52.724;6.516;2023-11-19T13:11:10;15.38;;;2.85;;
78670;SDS011;68277;52.724;6.516;2023-11-19T13:16:22;12.10;;;2.70;;
78670;SDS011;68277;52.724;6.516;2023-11-19T13:18:48;21.23;;;2.92;;
78670;SDS011;68277;52.724;6.516;2023-11-19T13:21:14;20.98;;;3.17;;
78670;SDS011;68277;52.724;6.516;2023-11-19T13:23:39;16.90;;;2.63;;
78670;SDS011;68277;52.724;6.516;2023-11-19T13:26:05;9.57;;;2.28;;
78670;SDS011;68277;52.724;6.516;2023-11-19T13:28:31;14.15;;;2.42;;
78670;SDS011;68277;52.724;6.516;2023-11-19T13:30:56;17.48;;;3.28;;
78670;SDS011;68277;52.724;6.516;2023-11-19T13:33:23;13.73;;;3.58;;
78670;SDS011;68277;52.724;6.516;2023-11-19T13:35:48;23.65;;;2.95;;
78670;SDS011;68277;52.724;6.516;2023-11-19T13:38:14;20.92;;;3.15;;
78670;SDS011;68277;52.724;6.516;2023-11-19T13:40:39;7.50;;;1.58;;
78670;SDS011;68277;52.724;6.516;2023-11-19T13:43:05;15.50;;;2.60;;
78670;SDS011;68277;52.724;6.516;2023-11-19T13:45:30;16.35;;;2.90;;
78670;SDS011;68277;52.724;6.516;2023-11-19T13:47:58;18.98;;;3.03;;
78670;SDS011;68277;52.724;6.516;2023-11-19T13:50:24;13.02;;;2.35;;
78670;SDS011;68277;52.724;6.516;2023-11-19T13:52:51;12.20;;;3.55;;
78670;SDS011;68277;52.724;6.516;2023-11-19T13:55:16;14.85;;;3.67;;
78670;SDS011;68277;52.724;6.516;2023-11-19T13:57:42;17.55;;;2.22;;
78670;SDS011;68277;52.724;6.516;2023-11-19T14:00:08;15.98;;;3.00;;
78670;SDS011;68277;52.724;6.516;2023-11-19T14:02:48;16.90;;;2.67;;
78670;SDS011;68277;52.724;6.516;2023-11-19T14:05:14;10.77;;;1.55;;
78670;SDS011;68277;52.724;6.516;2023-11-19T14:07:45;14.23;;;2.22;;
78670;SDS011;68277;52.724;6.516;2023-11-19T14:10:13;11.50;;;2.00;;
78670;SDS011;68277;52.724;6.516;2023-11-19T14:12:40;7.43;;;1.85;;
78670;SDS011;68277;52.724;6.516;2023-11-19T14:15:06;13.55;;;3.42;;
78670;SDS011;68277;52.724;6.516;2023-11-19T14:17:34;24.05;;;2.65;;
78670;SDS011;68277;52.724;6.516;2023-11-19T14:20:01;15.90;;;2.55;;
78670;SDS011;68277;52.724;6.516;2023-11-19T14:22:30;10.15;;;2.42;;
78670;SDS011;68277;52.724;6.516;2023-11-19T14:24:55;18.48;;;3.13;;
78670;SDS011;68277;52.724;6.516;2023-11-19T14:27:21;9.93;;;2.75;;
78670;SDS011;68277;52.724;6.516;2023-11-19T14:29:47;16.15;;;2.80;;
78670;SDS011;68277;52.724;6.516;2023-11-19T14:32:13;18.73;;;2.58;;
78670;SDS011;68277;52.724;6.516;2023-11-19T14:34:39;11.95;;;3.38;;
78670;SDS011;68277;52.724;6.516;2023-11-19T14:37:04;15.48;;;2.28;;
78670;SDS011;68277;52.724;6.516;2023-11-19T14:39:30;10.48;;;2.67;;
78670;SDS011;68277;52.724;6.516;2023-11-19T14:41:57;11.98;;;2.33;;
78670;SDS011;68277;52.724;6.516;2023-11-19T14:44:29;12.38;;;2.20;;
78670;SDS011;68277;52.724;6.516;2023-11-19T14:46:55;9.23;;;1.88;;
78670;SDS011;68277;52.724;6.516;2023-11-19T14:49:21;8.23;;;2.00;;
78670;SDS011;68277;52.724;6.516;2023-11-19T14:51:46;8.88;;;2.65;;
78670;SDS011;68277;52.724;6.516;2023-11-19T14:54:12;8.43;;;2.38;;
78670;SDS011;68277;52.724;6.516;2023-11-19T14:56:39;14.18;;;1.90;;
78670;SDS011;68277;52.724;6.516;2023-11-19T14:59:05;15.43;;;2.22;;
78670;SDS011;68277;52.724;6.516;2023-11-19T15:01:31;15.02;;;2.10;;
78670;SDS011;68277;52.724;6.516;2023-11-19T15:03:56;14.73;;;3.63;;
78670;SDS011;68277;52.724;6.516;2023-11-19T15:06:25;13.13;;;2.42;;
78670;SDS011;68277;52.724;6.516;2023-11-19T15:08:55;10.15;;;3.63;;
78670;SDS011;68277;52.724;6.516;2023-11-19T15:11:21;10.43;;;2.08;;
78670;SDS011;68277;52.724;6.516;2023-11-19T15:13:47;16.00;;;3.60;;
78670;SDS011;68277;52.724;6.516;2023-11-19T15:18:40;24.20;;;4.47;;
78670;SDS011;68277;52.724;6.516;2023-11-19T15:21:06;19.88;;;2.90;;
78670;SDS011;68277;52.724;6.516;2023-11-19T15:23:31;19.95;;;3.75;;
78670;SDS011;68277;52.724;6.516;2023-11-19T15:25:57;17.33;;;2.42;;
78670;SDS011;68277;52.724;6.516;2023-11-19T15:28:22;15.02;;;2.47;;
78670;SDS011;68277;52.724;6.516;2023-11-19T15:30:48;7.75;;;2.42;;
78670;SDS011;68277;52.724;6.516;2023-11-19T15:33:14;11.77;;;1.85;;